createdAt,value
2023-01-04T00:01:41.492Z,16.50
2023-01-04T00:04:43.784Z,15.95
2023-01-04T00:07:46.076Z,18.60
2023-01-04T00:10:48.419Z,19.13
2023-01-04T00:13:53.445Z,20.70
2023-01-04T00:16:55.860Z,19.80
2023-01-04T00:19:58.309Z,18.27
2023-01-04T00:23:00.682Z,18.33
2023-01-04T00:26:03.068Z,13.40
2023-01-04T00:29:07.261Z,20.08
2023-01-04T00:32:09.570Z,16.35
2023-01-04T00:35:27.110Z,15.43
2023-01-04T00:38:35.234Z,15.45
2023-01-04T00:41:59.404Z,17.23
2023-01-04T00:45:02.856Z,19.80
2023-01-04T00:48:05.248Z,20.88
2023-01-04T00:51:07.647Z,17.30
2023-01-04T00:54:14.459Z,20.48
2023-01-04T00:57:16.845Z,18.77
2023-01-04T01:00:19.346Z,16.55
2023-01-04T01:03:21.761Z,21.10
2023-01-04T01:06:25.090Z,24.42
2023-01-04T01:09:27.713Z,33.63
2023-01-04T01:12:30.667Z,21.00
2023-01-04T01:15:35.441Z,18.65
2023-01-04T01:18:39.960Z,22.13
2023-01-04T01:21:42.744Z,23.48
2023-01-04T01:24:45.235Z,20.23
2023-01-04T01:27:47.629Z,25.05
2023-01-04T01:30:50.103Z,22.08
2023-01-04T01:33:54.875Z,33.08
2023-01-04T01:36:57.201Z,21.55
2023-01-04T01:39:59.603Z,21.80
2023-01-04T01:43:01.925Z,19.38
2023-01-04T01:46:04.432Z,21.00
2023-01-04T01:49:18.781Z,22.52
2023-01-04T01:52:30.993Z,21.70
2023-01-04T01:55:34.348Z,22.38
2023-01-04T01:58:40.439Z,19.45
2023-01-04T02:01:42.989Z,19.42
2023-01-04T02:04:48.074Z,19.13
2023-01-04T02:07:51.007Z,21.42
2023-01-04T02:10:53.379Z,20.53
2023-01-04T02:14:15.129Z,21.70
2023-01-04T02:17:27.459Z,17.00
2023-01-04T02:20:35.651Z,23.75
2023-01-04T02:23:59.634Z,40.00
2023-01-04T02:27:23.116Z,34.33
2023-01-04T02:31:02.760Z,20.17
2023-01-04T02:34:16.852Z,22.55
2023-01-04T02:37:37.559Z,19.98
2023-01-04T02:40:48.375Z,20.67
2023-01-04T02:44:14.959Z,18.88
2023-01-04T02:47:44.413Z,21.67
2023-01-04T02:50:58.041Z,23.77
2023-01-04T02:54:04.853Z,16.30
2023-01-04T02:57:23.436Z,20.25
2023-01-04T03:00:34.797Z,18.90
2023-01-04T03:04:28.680Z,18.83
2023-01-04T03:07:41.773Z,17.25
2023-01-04T03:10:51.448Z,17.33
2023-01-04T03:13:54.611Z,17.92
2023-01-04T03:16:57.236Z,18.70
2023-01-04T03:20:00.526Z,19.83
2023-01-04T03:23:27.943Z,20.98
2023-01-04T03:26:56.355Z,22.10
2023-01-04T03:30:21.785Z,21.65
2023-01-04T03:33:43.434Z,26.55
2023-01-04T03:36:57.812Z,17.23
2023-01-04T03:40:24.349Z,20.08
2023-01-04T03:43:56.864Z,21.25
2023-01-04T03:47:24.278Z,22.42
2023-01-04T03:50:31.184Z,20.55
2023-01-04T03:53:36.714Z,26.95
2023-01-04T03:56:44.051Z,21.90
2023-01-04T03:59:52.980Z,24.67
2023-01-04T04:03:07.425Z,21.38
2023-01-04T04:06:28.593Z,26.98
2023-01-04T04:09:31.040Z,26.63
2023-01-04T04:12:33.433Z,21.95
2023-01-04T04:15:36.924Z,24.23
2023-01-04T04:18:39.736Z,22.77
2023-01-04T04:21:42.471Z,22.73
2023-01-04T04:24:44.809Z,23.63
2023-01-04T04:27:47.062Z,25.45
2023-01-04T04:30:52.866Z,21.90
2023-01-04T04:33:55.104Z,22.75
2023-01-04T04:36:57.394Z,20.90
2023-01-04T04:39:59.788Z,20.17
2023-01-04T04:43:02.111Z,21.20
2023-01-04T04:46:04.644Z,22.27
2023-01-04T04:49:07.818Z,18.20
2023-01-04T04:52:10.243Z,21.83
2023-01-04T04:55:12.731Z,20.98
2023-01-04T04:58:15.157Z,19.45
2023-01-04T05:01:17.826Z,19.60
2023-01-04T05:04:20.295Z,20.90
2023-01-04T05:07:22.649Z,21.38
2023-01-04T05:10:24.934Z,22.77
2023-01-04T05:13:27.251Z,28.35
2023-01-04T05:16:29.748Z,31.48
2023-01-04T05:19:32.129Z,17.77
2023-01-04T05:22:34.483Z,26.33
2023-01-04T05:25:36.724Z,24.23
2023-01-04T05:28:39.183Z,25.00
2023-01-04T05:31:41.454Z,24.20
2023-01-04T05:34:43.717Z,22.98
2023-01-04T05:37:46.203Z,21.70
2023-01-04T05:40:49.317Z,27.27
2023-01-04T05:43:51.651Z,23.27
2023-01-04T05:46:53.990Z,27.50
2023-01-04T05:49:56.281Z,30.45
2023-01-04T05:52:58.643Z,34.42
2023-01-04T05:56:00.976Z,24.35
2023-01-04T05:59:03.334Z,29.92
2023-01-04T06:02:06.214Z,41.95
2023-01-04T06:05:10.585Z,32.93
2023-01-04T06:08:12.906Z,25.75
2023-01-04T06:11:15.284Z,26.40
2023-01-04T06:14:17.613Z,28.27
2023-01-04T06:17:20.428Z,33.97
2023-01-04T06:20:23.032Z,29.48
2023-01-04T06:23:25.486Z,25.33
2023-01-04T06:26:27.912Z,28.10
2023-01-04T06:29:30.209Z,28.05
2023-01-04T06:32:32.585Z,25.50
2023-01-04T06:35:36.162Z,31.25
2023-01-04T06:38:38.492Z,35.67
2023-01-04T06:41:40.811Z,25.35
2023-01-04T06:44:43.204Z,38.55
2023-01-04T06:47:45.764Z,37.35
2023-01-04T06:50:48.112Z,30.75
2023-01-04T06:53:50.755Z,27.55
2023-01-04T06:56:53.096Z,28.83
2023-01-04T06:59:55.429Z,25.70
2023-01-04T07:03:13.474Z,31.63
2023-01-04T07:06:17.756Z,46.50
2023-01-04T07:09:20.084Z,30.65
2023-01-04T07:12:22.431Z,33.55
2023-01-04T07:15:37.344Z,36.17
2023-01-04T07:18:42.191Z,38.47
2023-01-04T07:21:44.496Z,28.60
2023-01-04T07:24:46.818Z,26.20
2023-01-04T07:27:53.608Z,26.65
2023-01-04T07:30:55.938Z,28.83
2023-01-04T07:33:58.409Z,40.97
2023-01-04T07:37:00.783Z,30.27
2023-01-04T07:40:04.027Z,25.10
2023-01-04T07:43:06.522Z,34.13
2023-01-04T07:46:08.832Z,31.15
2023-01-04T07:49:18.616Z,31.85
2023-01-04T07:52:21.502Z,28.25
2023-01-04T07:55:23.879Z,32.67
2023-01-04T07:58:27.096Z,33.55
2023-01-04T08:01:29.480Z,30.55
2023-01-04T08:04:35.179Z,35.97
2023-01-04T08:07:37.803Z,26.42
2023-01-04T08:10:40.188Z,33.35
2023-01-04T08:13:43.264Z,28.40
2023-01-04T08:16:45.610Z,21.37
2023-01-04T08:19:48.068Z,31.65
2023-01-04T08:22:50.574Z,33.70
2023-01-04T08:25:52.806Z,35.53
2023-01-04T08:28:56.672Z,31.63
2023-01-04T08:31:58.998Z,31.65
2023-01-04T08:35:01.382Z,29.85
2023-01-04T08:38:37.000Z,33.33
2023-01-04T08:41:56.153Z,39.10
2023-01-04T08:44:48.541Z,39.97
2023-01-04T08:47:50.877Z,35.50
2023-01-04T08:50:53.180Z,39.42
2023-01-04T08:53:56.176Z,70.63
2023-01-04T08:56:58.487Z,48.75
2023-01-04T09:00:00.925Z,40.35
2023-01-04T09:03:03.349Z,40.78
2023-01-04T09:06:08.307Z,38.13
2023-01-04T09:09:10.744Z,39.42
2023-01-04T09:12:13.281Z,40.28
2023-01-04T09:15:15.731Z,49.08
2023-01-04T09:18:33.551Z,48.60
2023-01-04T09:21:36.086Z,38.65
2023-01-04T09:24:38.524Z,43.00
2023-01-04T09:27:40.851Z,46.33
2023-01-04T09:30:43.299Z,45.80
2023-01-04T09:34:13.558Z,41.33
2023-01-04T09:37:09.937Z,48.28
2023-01-04T09:40:21.748Z,43.42
2023-01-04T09:43:24.385Z,38.38
2023-01-04T09:46:33.476Z,44.03
2023-01-04T09:49:40.322Z,44.95
2023-01-04T09:53:05.665Z,46.95
2023-01-04T09:56:17.871Z,44.50
2023-01-04T09:59:27.030Z,48.63
2023-01-04T10:02:49.549Z,42.45
2023-01-04T10:05:54.752Z,44.05
2023-01-04T10:09:02.228Z,41.67
2023-01-04T10:12:22.601Z,41.97
2023-01-04T10:15:32.740Z,41.75
2023-01-04T10:20:59.690Z,40.25
2023-01-04T10:22:56.753Z,40.10
2023-01-04T10:26:08.401Z,36.42
2023-01-04T10:29:38.440Z,48.85
2023-01-04T10:32:45.636Z,50.08
2023-01-04T10:35:48.961Z,41.10
2023-01-04T10:38:58.438Z,39.83
2023-01-04T10:42:26.295Z,34.80
2023-01-04T10:45:36.993Z,46.03
2023-01-04T10:49:08.950Z,50.42
2023-01-04T10:52:13.179Z,44.45
2023-01-04T10:55:27.717Z,42.33
2023-01-04T10:58:35.454Z,42.92
2023-01-04T11:01:54.778Z,33.15
2023-01-04T11:05:03.736Z,41.35
2023-01-04T11:08:37.388Z,44.67
2023-01-04T11:11:47.276Z,36.70
2023-01-04T11:14:50.986Z,42.05
2023-01-04T11:17:53.482Z,37.95
2023-01-04T11:20:55.948Z,35.92
2023-01-04T11:24:21.961Z,37.95
2023-01-04T11:27:27.187Z,34.30
2023-01-04T11:30:37.315Z,37.42
2023-01-04T11:33:55.920Z,39.80
2023-01-04T11:36:58.763Z,55.03
2023-01-04T11:40:13.512Z,42.13
2023-01-04T11:43:20.550Z,75.10
2023-01-04T11:46:24.709Z,66.40
2023-01-04T11:49:35.892Z,46.55
2023-01-04T11:52:39.773Z,48.08
2023-01-04T11:55:42.167Z,62.22
2023-01-04T11:58:46.850Z,55.90
2023-01-04T12:01:51.747Z,45.72
2023-01-04T12:04:54.247Z,31.83
2023-01-04T12:07:56.864Z,27.20
2023-01-04T12:11:00.568Z,34.42
2023-01-04T12:14:05.508Z,43.00
2023-01-04T12:17:29.417Z,27.48
2023-01-04T12:20:31.825Z,30.45
2023-01-04T12:23:34.608Z,34.80
2023-01-04T12:26:43.298Z,33.53
2023-01-04T12:29:53.590Z,26.33
2023-01-04T12:32:55.923Z,34.40
2023-01-04T12:36:14.954Z,32.88
2023-01-04T12:39:17.178Z,56.75
2023-01-04T12:42:27.544Z,103.88
2023-01-04T12:45:29.863Z,51.22
2023-01-04T12:48:51.253Z,107.05
2023-01-04T12:55:35.150Z,57.92
2023-01-04T12:59:15.260Z,41.45
2023-01-04T13:02:52.070Z,46.00
2023-01-04T13:06:06.244Z,42.10
2023-01-04T13:09:24.929Z,32.25
2023-01-04T13:13:02.048Z,35.83
2023-01-04T13:16:13.011Z,31.35
2023-01-04T13:19:28.863Z,33.45
2023-01-04T13:22:34.066Z,32.53
2023-01-04T13:25:36.347Z,29.85
2023-01-04T13:28:38.752Z,27.50
2023-01-04T13:32:00.212Z,27.85
2023-01-04T13:35:11.467Z,27.75
2023-01-04T13:38:17.174Z,26.92
2023-01-04T13:41:23.126Z,31.30
2023-01-04T13:45:00.191Z,27.02
2023-01-04T13:47:58.612Z,43.20
2023-01-04T13:51:04.101Z,52.60
2023-01-04T13:54:17.029Z,46.67
2023-01-04T13:57:24.527Z,37.35
2023-01-04T14:00:42.990Z,39.63
2023-01-04T14:03:45.468Z,33.47
2023-01-04T14:06:52.186Z,30.67
2023-01-04T14:09:58.659Z,26.83
2023-01-04T14:13:01.818Z,29.45
2023-01-04T14:16:14.990Z,32.47
2023-01-04T14:19:54.080Z,33.28
2023-01-04T14:22:58.206Z,27.52
2023-01-04T14:29:21.371Z,28.83
2023-01-04T14:32:23.734Z,51.72
2023-01-04T14:35:27.495Z,174.25
2023-01-04T14:38:30.075Z,53.42
2023-01-04T14:41:41.022Z,54.75
2023-01-04T14:44:43.259Z,34.42
2023-01-04T14:47:45.684Z,34.95
2023-01-04T14:50:48.024Z,26.90
2023-01-04T14:53:51.409Z,33.17
2023-01-04T14:56:54.687Z,21.80
2023-01-04T14:59:57.093Z,25.53
2023-01-04T15:02:59.587Z,32.40
2023-01-04T15:06:02.107Z,26.17
2023-01-04T15:09:04.585Z,24.10
2023-01-04T15:12:06.965Z,23.42
2023-01-04T15:15:09.966Z,20.35
2023-01-04T15:18:12.307Z,22.73
2023-01-04T15:21:14.908Z,29.50
2023-01-04T15:24:17.490Z,22.70
2023-01-04T15:27:21.624Z,25.60
2023-01-04T15:30:25.651Z,24.67
2023-01-04T15:33:32.317Z,22.48
2023-01-04T15:36:38.682Z,24.60
2023-01-04T15:39:41.328Z,23.08
2023-01-04T15:42:59.319Z,25.95
2023-01-04T15:46:07.502Z,25.23
2023-01-04T15:49:16.709Z,25.08
2023-01-04T15:52:19.729Z,28.20
2023-01-04T15:55:22.115Z,24.90
2023-01-04T15:58:24.492Z,23.17
2023-01-04T16:01:26.890Z,25.13
2023-01-04T16:04:29.661Z,18.13
2023-01-04T16:07:36.313Z,19.00
2023-01-04T16:10:39.036Z,25.50
2023-01-04T16:13:45.879Z,19.23
2023-01-04T16:16:48.262Z,39.10
2023-01-04T16:19:50.737Z,27.13
2023-01-04T16:22:53.011Z,21.52
2023-01-04T16:26:25.069Z,20.83
2023-01-04T16:29:27.607Z,19.20
2023-01-04T16:32:30.027Z,72.40
2023-01-04T16:35:33.370Z,43.45
2023-01-04T16:38:37.305Z,39.28
2023-01-04T16:41:39.771Z,37.50
2023-01-04T16:44:42.077Z,40.60
2023-01-04T16:47:46.162Z,20.85
2023-01-04T16:50:48.426Z,29.38
2023-01-04T16:53:51.455Z,25.05
2023-01-04T16:56:56.563Z,24.17
2023-01-04T16:59:58.961Z,21.77
2023-01-04T17:03:01.336Z,23.90
2023-01-04T17:06:11.721Z,24.80
2023-01-04T17:09:20.207Z,27.38
2023-01-04T17:15:45.217Z,24.05
2023-01-04T17:18:48.510Z,23.33
2023-01-04T17:21:51.044Z,19.95
2023-01-04T17:24:53.696Z,21.92
2023-01-04T17:27:56.046Z,25.05
2023-01-04T17:30:58.381Z,20.17
2023-01-04T17:34:00.961Z,22.23
2023-01-04T17:37:03.290Z,20.38
2023-01-04T17:40:06.072Z,15.80
2023-01-04T17:43:08.386Z,17.17
2023-01-04T17:46:17.699Z,16.63
2023-01-04T17:49:30.796Z,15.55
2023-01-04T17:52:34.104Z,14.30
2023-01-04T17:55:36.599Z,15.40
2023-01-04T17:58:39.438Z,14.80
2023-01-04T18:01:41.766Z,15.00
2023-01-04T18:04:44.185Z,14.82
2023-01-04T18:07:46.531Z,15.20
2023-01-04T18:11:06.609Z,16.10
2023-01-04T18:14:14.186Z,14.88
2023-01-04T18:17:16.930Z,15.07
2023-01-04T18:20:24.725Z,16.55
2023-01-04T18:23:29.762Z,14.48
2023-01-04T18:26:41.581Z,15.05
2023-01-04T18:29:56.065Z,16.67
2023-01-04T18:32:58.679Z,13.00
2023-01-04T18:36:06.160Z,12.80
2023-01-04T18:39:08.529Z,12.68
2023-01-04T18:42:10.906Z,12.85
2023-01-04T18:45:13.306Z,12.50
2023-01-04T18:48:15.783Z,11.32
2023-01-04T18:51:20.930Z,11.35
2023-01-04T18:54:23.652Z,13.30
2023-01-04T18:57:26.075Z,11.23
2023-01-04T19:00:29.963Z,11.27
2023-01-04T19:03:34.440Z,11.52
2023-01-04T19:06:36.779Z,9.88
2023-01-04T19:09:39.708Z,10.20
2023-01-04T19:12:42.886Z,9.63
2023-01-04T19:15:47.737Z,10.23
2023-01-04T19:18:50.487Z,9.07
2023-01-04T19:21:52.981Z,9.75
2023-01-04T19:24:55.341Z,9.13
2023-01-04T19:27:57.834Z,9.65
2023-01-04T19:31:07.203Z,9.98
2023-01-04T19:34:10.230Z,8.95
2023-01-04T19:37:13.772Z,9.93
2023-01-04T19:40:16.216Z,10.52
2023-01-04T19:43:18.630Z,10.57
2023-01-04T19:46:21.048Z,10.48
2023-01-04T19:49:23.596Z,9.02
2023-01-04T19:52:26.269Z,9.60
2023-01-04T19:55:29.867Z,10.32
2023-01-04T19:58:32.475Z,10.77
2023-01-04T20:01:34.992Z,10.18
2023-01-04T20:04:37.468Z,9.65
2023-01-04T20:07:39.804Z,10.52
2023-01-04T20:10:42.268Z,10.18
2023-01-04T20:13:44.650Z,10.32
2023-01-04T20:16:47.011Z,11.68
2023-01-04T20:19:49.408Z,11.38
2023-01-04T20:22:51.815Z,11.93
2023-01-04T20:25:55.269Z,23.90
2023-01-04T20:28:57.699Z,10.85
2023-01-04T20:32:00.986Z,12.75
2023-01-04T20:35:03.784Z,11.73
2023-01-04T20:38:06.226Z,14.30
2023-01-04T20:41:10.456Z,13.00
2023-01-04T20:47:15.566Z,13.52
2023-01-04T20:50:17.856Z,13.25
2023-01-04T20:53:20.661Z,11.00
2023-01-04T20:56:28.619Z,11.57
2023-01-04T20:59:31.104Z,12.55
2023-01-04T21:02:38.078Z,12.00
2023-01-04T21:05:43.223Z,11.48
2023-01-04T21:08:46.734Z,9.50
2023-01-04T21:11:49.146Z,13.75
2023-01-04T21:14:51.431Z,8.85
2023-01-04T21:17:53.699Z,10.50
2023-01-04T21:20:56.157Z,11.40
2023-01-04T21:23:58.505Z,10.77
2023-01-04T21:27:01.728Z,9.75
2023-01-04T21:30:04.819Z,8.20
2023-01-04T21:33:07.919Z,10.20
2023-01-04T21:36:21.884Z,8.98
2023-01-04T21:39:24.171Z,6.25
2023-01-04T21:42:26.676Z,8.85
2023-01-04T21:45:29.062Z,9.35
2023-01-04T21:48:31.456Z,9.02
2023-01-04T21:51:34.347Z,7.47
2023-01-04T21:54:37.984Z,6.63
2023-01-04T21:57:40.328Z,6.32
2023-01-04T22:00:42.617Z,7.18
2023-01-04T22:03:45.479Z,7.05
2023-01-04T22:06:47.884Z,6.22
2023-01-04T22:09:57.038Z,6.60
2023-01-04T22:12:59.846Z,7.07
2023-01-04T22:16:11.001Z,6.85
2023-01-04T22:19:14.809Z,5.80
2023-01-04T22:22:17.242Z,5.75
2023-01-04T22:25:21.344Z,6.05
2023-01-04T22:28:24.717Z,6.00
2023-01-04T22:31:27.132Z,5.22
2023-01-04T22:34:29.667Z,5.18
2023-01-04T22:37:31.979Z,4.70
2023-01-04T22:40:34.823Z,4.68
2023-01-04T22:43:37.583Z,5.25
2023-01-04T22:46:40.021Z,5.00
2023-01-04T22:49:42.333Z,5.88
2023-01-04T22:52:50.660Z,5.82
2023-01-04T22:56:18.520Z,5.15
2023-01-04T22:59:15.690Z,6.35
2023-01-04T23:02:18.004Z,6.00
2023-01-04T23:05:20.313Z,7.18
2023-01-04T23:08:22.700Z,6.35
2023-01-04T23:11:25.429Z,6.25
2023-01-04T23:14:27.856Z,6.32
2023-01-04T23:17:30.595Z,9.10
2023-01-04T23:20:33.427Z,6.78
2023-01-04T23:23:35.976Z,6.47
2023-01-04T23:26:38.419Z,5.90
2023-01-04T23:29:41.274Z,5.82
2023-01-04T23:32:44.236Z,6.88
2023-01-04T23:35:46.568Z,5.97
2023-01-04T23:38:57.727Z,5.75
2023-01-04T23:42:00.096Z,7.78
2023-01-04T23:45:02.370Z,5.75
2023-01-04T23:48:04.927Z,5.10
2023-01-04T23:51:07.273Z,7.05
2023-01-04T23:54:10.171Z,5.00
2023-01-04T23:57:12.442Z,4.55
